Aviation Digital Data Service (ADDS)

Output produced by METARs form (2238 UTC 30 March 2017)
found at http://www.aviationweather.gov/adds/metars/
 
TAF FXMM 300400Z 3006/3106 00000KT CAVOK 
     FM301000 36004KT CAVOK 
     BECMG 3018/3022 00000KT